createdAt,value
2023-08-17T00:01:07.083Z,85.90
2023-08-17T00:03:34.039Z,85.40
2023-08-17T00:06:01.470Z,85.30
2023-08-17T00:08:28.473Z,85.60
2023-08-17T00:10:55.239Z,85.80
2023-08-17T00:13:22.104Z,85.80
2023-08-17T00:15:48.994Z,86.30
2023-08-17T00:18:15.929Z,85.50
2023-08-17T00:20:42.767Z,85.90
2023-08-17T00:23:09.605Z,86.30
2023-08-17T00:25:36.644Z,86.10
2023-08-17T00:28:03.643Z,86.10
2023-08-17T00:30:30.499Z,86.40
2023-08-17T00:32:57.478Z,86.20
2023-08-17T00:35:24.402Z,85.80
2023-08-17T00:37:51.234Z,85.80
2023-08-17T00:40:18.112Z,85.90
2023-08-17T00:42:44.936Z,85.90
2023-08-17T00:45:11.837Z,86.00
2023-08-17T00:47:39.201Z,85.80
2023-08-17T00:50:06.921Z,85.70
2023-08-17T00:52:34.576Z,85.60
2023-08-17T00:55:02.197Z,85.90
2023-08-17T00:57:29.609Z,86.10
2023-08-17T01:00:04.761Z,86.40
2023-08-17T01:02:34.025Z,86.40
2023-08-17T01:05:01.586Z,86.40
2023-08-17T01:07:28.808Z,86.90
2023-08-17T01:09:55.986Z,86.80
2023-08-17T01:13:08.965Z,86.60
2023-08-17T01:15:48.602Z,86.80
2023-08-17T01:18:23.147Z,86.90
2023-08-17T01:20:50.820Z,86.60
2023-08-17T01:23:17.769Z,86.80
2023-08-17T01:25:44.677Z,86.60
2023-08-17T01:28:11.526Z,86.50
2023-08-17T01:31:09.631Z,86.90
2023-08-17T01:33:38.658Z,86.60
2023-08-17T01:36:12.714Z,86.90
2023-08-17T01:38:41.705Z,86.90
2023-08-17T01:41:14.401Z,87.20
2023-08-17T01:43:46.915Z,87.10
2023-08-17T01:46:19.157Z,87.40
2023-08-17T01:48:46.915Z,87.60
2023-08-17T01:51:22.481Z,87.80
2023-08-17T01:53:49.785Z,87.80
2023-08-17T01:56:16.779Z,88.20
2023-08-17T01:58:43.799Z,87.80
2023-08-17T02:01:10.905Z,88.00
2023-08-17T02:03:37.879Z,88.20
2023-08-17T02:06:04.748Z,88.10
2023-08-17T02:08:31.816Z,88.20
2023-08-17T02:10:58.631Z,88.50
2023-08-17T02:13:25.442Z,88.60
2023-08-17T02:15:52.267Z,88.80
2023-08-17T02:18:19.079Z,89.00
2023-08-17T02:20:46.677Z,89.30
2023-08-17T02:23:13.624Z,89.20
2023-08-17T02:25:40.969Z,89.40
2023-08-17T02:28:07.885Z,89.60
2023-08-17T02:30:34.961Z,89.70
2023-08-17T02:33:01.932Z,89.90
2023-08-17T02:35:28.989Z,89.70
2023-08-17T02:37:56.081Z,89.80
2023-08-17T02:40:23.428Z,89.90
2023-08-17T02:42:50.401Z,90.20
2023-08-17T02:45:17.363Z,90.40
2023-08-17T02:47:44.367Z,90.20
2023-08-17T02:50:11.423Z,90.40
2023-08-17T02:52:38.478Z,90.50
2023-08-17T02:55:05.921Z,90.50
2023-08-17T02:57:32.870Z,90.20
2023-08-17T02:59:59.841Z,90.30
2023-08-17T03:02:26.698Z,90.40
2023-08-17T03:04:53.556Z,90.40
2023-08-17T03:07:20.361Z,90.60
2023-08-17T03:09:47.250Z,90.60
2023-08-17T03:12:14.109Z,90.60
2023-08-17T03:14:41.013Z,90.70
2023-08-17T03:17:07.900Z,90.70
2023-08-17T03:19:34.678Z,90.80
2023-08-17T03:22:01.572Z,90.90
2023-08-17T03:24:28.439Z,91.20
2023-08-17T03:26:55.255Z,91.30
2023-08-17T03:29:22.069Z,91.40
2023-08-17T03:31:50.771Z,91.60
2023-08-17T03:34:17.659Z,91.60
2023-08-17T03:36:44.556Z,91.80
2023-08-17T03:39:11.680Z,92.00
2023-08-17T03:41:38.579Z,92.20
2023-08-17T03:44:07.160Z,92.50
2023-08-17T03:46:34.898Z,92.70
2023-08-17T03:49:01.832Z,92.70
2023-08-17T03:51:28.714Z,92.80
2023-08-17T03:53:55.611Z,92.90
2023-08-17T03:56:22.444Z,93.00
2023-08-17T03:58:49.311Z,93.20
2023-08-17T04:01:16.268Z,93.10
2023-08-17T04:03:43.390Z,93.10
2023-08-17T04:06:11.606Z,93.10
2023-08-17T04:08:39.126Z,93.30
2023-08-17T04:11:09.320Z,93.30
2023-08-17T04:13:36.502Z,93.10
2023-08-17T04:16:03.387Z,93.00
2023-08-17T04:18:30.391Z,93.20
2023-08-17T04:20:57.305Z,93.50
2023-08-17T04:23:24.148Z,93.70
2023-08-17T04:25:50.997Z,93.60
2023-08-17T04:28:17.890Z,93.30
2023-08-17T04:30:44.927Z,93.30
2023-08-17T04:33:14.070Z,93.10
2023-08-17T04:35:41.156Z,92.60
2023-08-17T04:38:08.071Z,92.40
2023-08-17T04:40:35.039Z,92.20
2023-08-17T04:43:02.055Z,91.80
2023-08-17T04:45:29.191Z,91.30
2023-08-17T04:47:56.231Z,90.80
2023-08-17T04:50:23.167Z,90.60
2023-08-17T04:52:50.081Z,89.90
2023-08-17T04:55:16.978Z,90.30
2023-08-17T04:57:44.165Z,89.80
2023-08-17T05:00:12.118Z,89.50
2023-08-17T05:02:39.131Z,89.50
2023-08-17T05:05:06.987Z,89.50
2023-08-17T05:07:34.595Z,89.30
2023-08-17T05:10:02.224Z,89.50
2023-08-17T05:12:29.335Z,89.50
2023-08-17T05:14:56.315Z,89.50
2023-08-17T05:17:23.238Z,89.90
2023-08-17T05:19:50.575Z,89.70
2023-08-17T05:22:17.436Z,89.40
2023-08-17T05:24:44.439Z,89.70
2023-08-17T05:27:11.483Z,89.70
2023-08-17T05:29:38.478Z,89.70
2023-08-17T05:32:05.804Z,89.50
2023-08-17T05:34:32.757Z,89.50
2023-08-17T05:36:59.587Z,89.10
2023-08-17T05:39:26.949Z,89.00
2023-08-17T05:41:53.875Z,88.10
2023-08-17T05:44:20.736Z,88.00
2023-08-17T05:46:48.618Z,87.60
2023-08-17T05:49:17.416Z,86.80
2023-08-17T05:51:44.351Z,86.80
2023-08-17T05:54:11.217Z,86.90
2023-08-17T05:56:38.138Z,87.10
2023-08-17T05:59:05.733Z,87.10
2023-08-17T06:01:32.763Z,87.00
2023-08-17T06:03:59.626Z,86.70
2023-08-17T06:06:27.443Z,87.00
2023-08-17T06:08:54.343Z,86.90
2023-08-17T06:11:21.336Z,87.00
2023-08-17T06:13:48.240Z,86.00
2023-08-17T06:16:15.098Z,86.30
2023-08-17T06:18:42.000Z,86.30
2023-08-17T06:21:09.496Z,86.30
2023-08-17T06:23:36.348Z,86.10
2023-08-17T06:26:03.521Z,86.20
2023-08-17T06:28:30.381Z,86.40
2023-08-17T06:30:58.395Z,86.50
2023-08-17T06:33:25.618Z,86.50
2023-08-17T06:35:52.812Z,86.40
2023-08-17T06:38:19.646Z,86.40
2023-08-17T06:40:47.341Z,86.50
2023-08-17T06:43:15.822Z,86.60
2023-08-17T06:45:44.120Z,86.70
2023-08-17T06:48:11.332Z,87.00
2023-08-17T06:50:38.344Z,86.80
2023-08-17T06:53:06.278Z,87.30
2023-08-17T06:55:33.140Z,86.90
2023-08-17T06:58:00.253Z,87.50
2023-08-17T07:00:27.308Z,87.40
2023-08-17T07:02:56.349Z,87.40
2023-08-17T07:05:25.813Z,87.30
2023-08-17T07:07:54.079Z,88.50
2023-08-17T07:10:21.128Z,90.60
2023-08-17T07:12:48.171Z,91.60
2023-08-17T07:15:16.535Z,91.90
2023-08-17T07:17:45.283Z,92.80
2023-08-17T07:20:17.029Z,94.50
2023-08-17T07:22:45.141Z,96.10
2023-08-17T07:25:12.162Z,96.00
2023-08-17T07:27:41.351Z,97.10
2023-08-17T07:30:09.179Z,97.80
2023-08-17T07:32:37.596Z,97.90
2023-08-17T07:35:07.085Z,98.90
2023-08-17T07:37:39.428Z,98.60
2023-08-17T07:40:11.082Z,98.90
2023-08-17T07:42:41.627Z,99.20
2023-08-17T07:45:09.192Z,99.00
2023-08-17T07:47:40.868Z,99.40
2023-08-17T07:50:10.418Z,99.40
2023-08-17T07:52:43.029Z,99.30
2023-08-17T07:55:11.348Z,99.50
2023-08-17T07:57:41.425Z,99.50
2023-08-17T08:00:13.254Z,99.60
2023-08-17T08:02:43.408Z,99.90
2023-08-17T08:05:10.340Z,99.80
2023-08-17T08:07:37.209Z,100.00
2023-08-17T08:10:04.335Z,100.00
2023-08-17T08:12:33.835Z,100.00
2023-08-17T08:15:03.986Z,99.90
2023-08-17T08:17:31.282Z,100.00
2023-08-17T08:19:59.327Z,100.00
2023-08-17T08:22:26.573Z,99.20
2023-08-17T08:24:53.445Z,98.80
2023-08-17T08:27:20.469Z,97.50
2023-08-17T08:29:47.622Z,97.60
2023-08-17T08:32:14.601Z,97.20
2023-08-17T08:34:41.463Z,96.70
2023-08-17T08:37:08.342Z,97.10
2023-08-17T08:39:52.845Z,96.80
2023-08-17T08:42:20.861Z,97.00
2023-08-17T08:44:49.092Z,97.00
2023-08-17T08:47:18.336Z,97.00
2023-08-17T08:50:06.227Z,96.90
2023-08-17T08:52:41.741Z,96.30
2023-08-17T08:55:20.350Z,95.70
2023-08-17T08:57:52.355Z,95.60
2023-08-17T09:00:19.916Z,96.60
2023-08-17T09:02:47.121Z,96.30
2023-08-17T09:05:15.144Z,96.80
2023-08-17T09:07:44.239Z,97.30
2023-08-17T09:10:12.021Z,95.90
2023-08-17T09:12:41.590Z,96.50
2023-08-17T09:15:09.514Z,96.10
2023-08-17T09:17:44.108Z,96.70
2023-08-17T09:20:11.725Z,96.00
2023-08-17T09:22:44.042Z,94.90
2023-08-17T09:25:23.779Z,95.60
2023-08-17T09:27:50.616Z,96.10
2023-08-17T09:30:19.515Z,96.20
2023-08-17T09:32:49.248Z,96.10
2023-08-17T09:35:16.233Z,96.20
2023-08-17T09:37:43.195Z,96.20
2023-08-17T09:40:11.380Z,96.40
2023-08-17T09:42:40.055Z,95.90
2023-08-17T09:45:07.902Z,96.50
2023-08-17T09:47:35.008Z,95.90
2023-08-17T09:50:07.335Z,96.10
2023-08-17T09:52:34.334Z,96.30
2023-08-17T09:55:08.180Z,95.00
2023-08-17T09:57:37.748Z,95.60
2023-08-17T10:00:10.286Z,95.20
2023-08-17T10:02:37.110Z,96.50
2023-08-17T10:05:06.715Z,96.30
2023-08-17T10:07:38.730Z,96.40
2023-08-17T10:10:07.117Z,96.20
2023-08-17T10:12:52.157Z,96.30
2023-08-17T10:15:20.748Z,95.80
2023-08-17T10:18:03.259Z,95.50
2023-08-17T10:20:32.084Z,96.10
2023-08-17T10:23:16.403Z,96.20
2023-08-17T10:25:44.348Z,95.40
2023-08-17T10:28:12.041Z,95.40
2023-08-17T10:30:39.503Z,95.30
2023-08-17T10:33:11.064Z,94.60
2023-08-17T10:35:39.439Z,95.10
2023-08-17T10:38:10.593Z,94.60
2023-08-17T10:40:42.227Z,94.80
2023-08-17T10:43:09.269Z,94.60
2023-08-17T10:45:39.575Z,94.40
2023-08-17T10:48:09.929Z,93.70
2023-08-17T10:50:42.723Z,93.10
2023-08-17T10:53:14.425Z,93.00
2023-08-17T10:55:46.178Z,91.70
2023-08-17T10:58:16.228Z,90.40
2023-08-17T11:00:45.536Z,90.30
2023-08-17T11:03:29.850Z,89.70
2023-08-17T11:05:58.187Z,89.80
2023-08-17T11:08:29.005Z,88.70
2023-08-17T11:11:11.995Z,87.40
2023-08-17T11:13:44.495Z,85.90
2023-08-17T11:16:15.970Z,86.50
2023-08-17T11:18:47.877Z,86.50
2023-08-17T11:21:19.777Z,86.80
2023-08-17T11:23:47.512Z,86.90
2023-08-17T11:26:18.241Z,86.80
2023-08-17T11:28:46.048Z,86.90
2023-08-17T11:31:14.943Z,87.10
2023-08-17T11:33:41.864Z,86.90
2023-08-17T11:36:10.972Z,87.00
2023-08-17T11:38:42.679Z,86.00
2023-08-17T11:41:10.431Z,86.80
2023-08-17T11:43:38.063Z,86.80
2023-08-17T11:46:06.321Z,86.10
2023-08-17T11:51:03.678Z,85.40
2023-08-17T11:53:37.376Z,84.90
2023-08-17T11:56:08.156Z,85.20
2023-08-17T11:58:44.602Z,84.40
2023-08-17T12:01:12.559Z,84.30
2023-08-17T12:03:42.001Z,83.20
2023-08-17T12:06:10.215Z,83.50
2023-08-17T12:08:37.331Z,83.70
2023-08-17T12:11:04.772Z,83.00
2023-08-17T12:13:35.801Z,82.70
2023-08-17T12:16:03.374Z,81.10
2023-08-17T12:18:34.441Z,82.40
2023-08-17T12:21:01.689Z,82.20
2023-08-17T12:23:28.638Z,80.40
2023-08-17T12:25:56.628Z,79.40
2023-08-17T12:28:25.613Z,80.00
2023-08-17T12:31:04.056Z,80.50
2023-08-17T12:33:31.092Z,78.60
2023-08-17T12:35:58.248Z,77.70
2023-08-17T12:38:26.385Z,78.50
2023-08-17T12:40:53.618Z,78.50
2023-08-17T12:43:23.149Z,78.40
2023-08-17T12:45:50.671Z,77.80
2023-08-17T12:48:17.574Z,76.80
2023-08-17T12:50:47.218Z,77.00
2023-08-17T12:53:14.124Z,77.00
2023-08-17T12:55:41.053Z,76.70
2023-08-17T12:58:11.254Z,76.20
2023-08-17T13:00:38.197Z,76.90
2023-08-17T13:03:05.472Z,76.50
2023-08-17T13:05:33.351Z,76.30
2023-08-17T13:08:00.484Z,76.00
2023-08-17T13:10:30.111Z,76.20
2023-08-17T13:13:02.333Z,75.60
2023-08-17T13:15:29.583Z,74.80
2023-08-17T13:17:56.760Z,75.90
2023-08-17T13:20:23.626Z,75.20
2023-08-17T13:22:50.752Z,74.50
2023-08-17T13:25:18.201Z,76.10
2023-08-17T13:27:45.277Z,75.90
2023-08-17T13:30:12.336Z,76.10
2023-08-17T13:32:39.517Z,76.80
2023-08-17T13:35:06.852Z,77.90
2023-08-17T13:37:35.811Z,78.90
2023-08-17T13:40:05.525Z,79.20
2023-08-17T13:42:35.157Z,79.30
2023-08-17T13:45:02.068Z,80.90
2023-08-17T13:47:28.927Z,80.40
2023-08-17T13:49:56.990Z,79.80
2023-08-17T13:52:24.616Z,80.00
2023-08-17T13:54:53.506Z,79.80
2023-08-17T13:57:20.346Z,79.60
2023-08-17T13:59:47.208Z,79.70
2023-08-17T14:02:14.108Z,78.40
2023-08-17T14:04:41.107Z,78.20
2023-08-17T14:07:07.974Z,77.70
2023-08-17T14:09:35.020Z,78.20
2023-08-17T14:12:02.773Z,78.00
2023-08-17T14:14:29.782Z,77.30
2023-08-17T14:16:58.048Z,78.10
2023-08-17T14:19:25.825Z,77.50
2023-08-17T14:21:55.941Z,77.70
2023-08-17T14:24:22.947Z,77.80
2023-08-17T14:26:50.160Z,80.50
2023-08-17T14:29:17.056Z,74.80
2023-08-17T14:31:43.880Z,71.40
2023-08-17T14:34:10.738Z,71.20
2023-08-17T14:36:37.699Z,71.90
2023-08-17T14:39:04.801Z,72.80
2023-08-17T14:41:33.668Z,72.70
2023-08-17T14:44:03.133Z,73.40
2023-08-17T14:46:30.897Z,73.00
2023-08-17T14:48:58.326Z,73.20
2023-08-17T14:51:30.920Z,76.00
2023-08-17T14:53:59.642Z,73.10
2023-08-17T14:56:26.543Z,71.90
2023-08-17T14:58:53.601Z,72.10
2023-08-17T15:01:22.956Z,74.00
2023-08-17T15:03:49.827Z,72.90
2023-08-17T15:06:28.017Z,71.10
2023-08-17T15:09:00.323Z,72.40
2023-08-17T15:11:27.336Z,72.50
2023-08-17T15:13:54.138Z,71.70
2023-08-17T15:16:28.473Z,71.70
2023-08-17T15:18:55.806Z,71.70
2023-08-17T15:21:24.337Z,72.30
2023-08-17T15:23:51.413Z,72.90
2023-08-17T15:26:18.305Z,74.20
2023-08-17T15:28:45.669Z,74.90
2023-08-17T15:31:17.362Z,75.50
2023-08-17T15:33:44.307Z,75.50
2023-08-17T15:36:11.158Z,76.20
2023-08-17T15:38:38.106Z,75.70
2023-08-17T15:41:05.017Z,75.60
2023-08-17T15:43:31.949Z,75.90
2023-08-17T15:45:58.840Z,76.30
2023-08-17T15:48:25.800Z,76.60
2023-08-17T15:50:53.024Z,77.30
2023-08-17T15:53:19.894Z,76.90
2023-08-17T15:55:46.784Z,76.70
2023-08-17T15:58:14.101Z,75.90
2023-08-17T16:00:41.187Z,76.40
2023-08-17T16:03:11.495Z,76.80
2023-08-17T16:05:39.796Z,77.10
2023-08-17T16:08:06.890Z,77.10
2023-08-17T16:10:35.736Z,77.00
2023-08-17T16:13:03.256Z,76.50
2023-08-17T16:15:30.042Z,75.80
2023-08-17T16:18:00.753Z,76.30
2023-08-17T16:20:30.637Z,75.80
2023-08-17T16:22:57.581Z,75.80
2023-08-17T16:25:29.723Z,75.90
2023-08-17T16:27:57.252Z,75.70
2023-08-17T16:30:24.563Z,75.70
2023-08-17T16:32:51.697Z,75.60
2023-08-17T16:35:18.822Z,75.30
2023-08-17T16:37:45.654Z,76.00
2023-08-17T16:40:20.872Z,76.00
2023-08-17T16:43:01.131Z,76.20
2023-08-17T16:45:28.558Z,76.50
2023-08-17T16:47:55.845Z,76.60
2023-08-17T16:50:23.108Z,76.70
2023-08-17T16:52:50.847Z,76.70
2023-08-17T16:55:18.253Z,76.20
2023-08-17T16:57:45.595Z,76.30
2023-08-17T17:00:13.151Z,77.10
2023-08-17T17:02:40.062Z,77.10
2023-08-17T17:05:07.566Z,76.30
2023-08-17T17:07:34.384Z,76.30
2023-08-17T17:10:01.188Z,76.30
2023-08-17T17:12:28.472Z,76.40
2023-08-17T17:14:55.489Z,76.30
2023-08-17T17:17:22.516Z,75.80
2023-08-17T17:19:50.814Z,76.20
2023-08-17T17:22:18.354Z,76.30
2023-08-17T17:24:45.217Z,76.50
2023-08-17T17:27:12.014Z,76.50
2023-08-17T17:29:38.918Z,76.60
2023-08-17T17:32:05.924Z,76.50
2023-08-17T17:34:32.969Z,76.80
2023-08-17T17:36:59.912Z,76.70
2023-08-17T17:39:26.794Z,77.40
2023-08-17T17:41:55.085Z,76.50
2023-08-17T17:44:21.902Z,76.70
2023-08-17T17:46:48.769Z,76.60
2023-08-17T17:49:17.741Z,76.40
2023-08-17T17:51:46.186Z,77.20
2023-08-17T17:54:13.206Z,76.80
2023-08-17T17:56:44.051Z,76.90
2023-08-17T17:59:11.804Z,76.70
2023-08-17T18:01:39.545Z,77.00
2023-08-17T18:04:06.951Z,76.80
2023-08-17T18:06:35.452Z,76.90
2023-08-17T18:09:08.612Z,76.90
2023-08-17T18:11:35.488Z,76.90
2023-08-17T18:14:04.955Z,77.20
2023-08-17T18:16:32.153Z,77.20
2023-08-17T18:18:59.676Z,77.20
2023-08-17T18:21:31.301Z,77.20
2023-08-17T18:24:01.640Z,77.20
2023-08-17T18:26:28.518Z,77.40
2023-08-17T18:28:56.595Z,77.70
2023-08-17T18:31:23.639Z,77.50
2023-08-17T18:33:50.604Z,78.20
2023-08-17T18:36:17.607Z,78.00
2023-08-17T18:38:44.528Z,78.00
2023-08-17T18:41:11.580Z,77.90
2023-08-17T18:43:38.865Z,78.00
2023-08-17T18:46:09.013Z,78.10
2023-08-17T18:48:36.121Z,78.10
2023-08-17T18:51:03.054Z,78.20
2023-08-17T18:53:29.995Z,78.40
2023-08-17T18:59:24.695Z,78.70
2023-08-17T19:01:51.518Z,78.50
2023-08-17T19:04:18.458Z,79.00
2023-08-17T19:06:45.240Z,79.00
2023-08-17T19:09:12.128Z,78.90
2023-08-17T19:11:38.949Z,79.10
2023-08-17T19:14:07.786Z,79.30
2023-08-17T19:16:34.667Z,79.40
2023-08-17T19:19:02.558Z,79.80
2023-08-17T19:21:50.048Z,79.70
2023-08-17T19:24:17.152Z,80.30
2023-08-17T19:26:43.994Z,80.30
2023-08-17T19:29:10.821Z,80.10
2023-08-17T19:31:37.957Z,80.30
2023-08-17T19:34:07.590Z,80.60
2023-08-17T19:36:35.102Z,80.90
2023-08-17T19:39:02.104Z,80.90
2023-08-17T19:41:29.286Z,81.10
2023-08-17T19:43:56.058Z,81.20
2023-08-17T19:46:22.941Z,81.10
2023-08-17T19:48:50.777Z,81.30
2023-08-17T19:51:17.611Z,81.40
2023-08-17T19:53:45.618Z,81.50
2023-08-17T19:56:12.434Z,81.60
2023-08-17T19:58:39.304Z,82.20
2023-08-17T20:01:08.542Z,82.20
2023-08-17T20:03:35.998Z,81.60
2023-08-17T20:06:03.308Z,82.00
2023-08-17T20:08:30.395Z,82.00
2023-08-17T20:10:57.294Z,82.20
2023-08-17T20:13:24.121Z,82.10
2023-08-17T20:15:55.626Z,82.30
2023-08-17T20:18:23.058Z,82.30
2023-08-17T20:20:57.116Z,82.60
2023-08-17T20:23:24.450Z,82.60
2023-08-17T20:25:53.795Z,82.70
2023-08-17T20:28:21.999Z,82.80
2023-08-17T20:30:55.645Z,82.70
2023-08-17T20:33:22.831Z,83.10
2023-08-17T20:35:54.875Z,83.00
2023-08-17T20:38:22.698Z,83.40
2023-08-17T20:40:50.255Z,83.60
2023-08-17T20:43:17.773Z,83.50
2023-08-17T20:45:44.812Z,83.90
2023-08-17T20:48:11.941Z,84.00
2023-08-17T20:50:43.740Z,84.20
2023-08-17T20:53:11.319Z,84.40
2023-08-17T20:55:40.338Z,84.70
2023-08-17T20:58:07.796Z,84.60
2023-08-17T21:00:36.938Z,85.00
2023-08-17T21:03:06.778Z,85.20
2023-08-17T21:05:34.186Z,85.40
2023-08-17T21:08:02.604Z,85.60
2023-08-17T21:10:29.891Z,85.80
2023-08-17T21:12:56.709Z,85.90
2023-08-17T21:15:23.777Z,86.30
2023-08-17T21:17:50.602Z,86.60
2023-08-17T21:20:17.707Z,86.70
2023-08-17T21:22:51.802Z,87.00
2023-08-17T21:25:19.437Z,87.10
2023-08-17T21:27:46.448Z,87.40
2023-08-17T21:30:13.488Z,87.50
2023-08-17T21:32:40.613Z,87.60
2023-08-17T21:35:08.357Z,87.90
2023-08-17T21:37:39.720Z,88.10
2023-08-17T21:40:07.010Z,88.30
2023-08-17T21:42:33.800Z,88.30
2023-08-17T21:45:00.763Z,88.70
2023-08-17T21:47:27.971Z,88.80
2023-08-17T21:49:55.109Z,89.10
2023-08-17T21:52:22.050Z,89.30
2023-08-17T21:54:52.090Z,89.60
2023-08-17T21:57:19.180Z,89.80
2023-08-17T21:59:46.094Z,90.00
2023-08-17T22:02:12.981Z,90.20
2023-08-17T22:04:39.858Z,90.50
2023-08-17T22:07:06.920Z,90.80
2023-08-17T22:09:34.617Z,91.00
2023-08-17T22:12:02.567Z,91.30
2023-08-17T22:14:32.586Z,91.40
2023-08-17T22:16:59.477Z,91.80
2023-08-17T22:19:26.965Z,92.10
2023-08-17T22:21:54.474Z,92.30
2023-08-17T22:24:21.504Z,92.70
2023-08-17T22:26:48.391Z,92.90
2023-08-17T22:29:15.227Z,92.90
2023-08-17T22:31:43.682Z,93.10
2023-08-17T22:34:13.892Z,93.40
2023-08-17T22:36:40.765Z,93.50
2023-08-17T22:39:07.780Z,93.90
2023-08-17T22:41:34.672Z,94.10
2023-08-17T22:44:02.225Z,94.10
2023-08-17T22:46:29.261Z,94.20
2023-08-17T22:48:56.257Z,94.40
2023-08-17T22:51:24.277Z,94.40
2023-08-17T22:53:51.746Z,94.40
2023-08-17T22:56:18.603Z,94.20
2023-08-17T22:58:45.557Z,94.40
2023-08-17T23:01:12.349Z,94.30
2023-08-17T23:03:39.385Z,94.40
2023-08-17T23:06:06.248Z,94.50
2023-08-17T23:08:33.576Z,94.50
2023-08-17T23:11:02.042Z,94.60
2023-08-17T23:13:29.082Z,94.60
2023-08-17T23:15:56.142Z,94.80
2023-08-17T23:18:23.302Z,95.00
2023-08-17T23:20:50.480Z,95.00
2023-08-17T23:23:18.947Z,95.00
2023-08-17T23:25:45.947Z,95.30
2023-08-17T23:28:13.220Z,95.40
2023-08-17T23:30:41.028Z,95.50
2023-08-17T23:33:10.161Z,95.60
2023-08-17T23:35:39.536Z,95.80
2023-08-17T23:38:07.395Z,95.60
2023-08-17T23:40:34.893Z,95.70
2023-08-17T23:43:01.853Z,95.60
2023-08-17T23:45:28.720Z,95.60
2023-08-17T23:47:56.364Z,95.60
2023-08-17T23:50:23.429Z,95.70
2023-08-17T23:52:50.624Z,95.80
2023-08-17T23:55:17.827Z,95.70
2023-08-17T23:57:44.625Z,95.80
